Time;durP1;ratioP1;P1;durP2;ratioP2;P2;SDS_P1;SDS_P2;PMS_P1;PMS_P2;Temp;Humidity;BMP_temperature;BMP_pressure;BME280_temperature;BME280_humidity;BME280_pressure;Samples;Min_cycle;Max_cycle;Signal;HPM_P1;HPM_P2
2022/01/22 00:01:27;;;;;;;;;18.00;17.25;;;;;5.63;68.17;102806.66;5055902;28;45540;-71
2022/01/22 00:03:52;;;;;;;;;16.50;14.00;;;;;5.50;68.43;102794.25;5056119;28;45330;-69
2022/01/22 00:06:17;;;;;;;;;17.00;11.25;;;;;5.56;68.62;102816.09;5056163;28;45678;-68
2022/01/22 00:08:43;;;;;;;;;15.50;14.00;;;;;5.50;68.63;102805.56;5056270;28;45416;-70
2022/01/22 00:11:08;;;;;;;;;18.00;14.75;;;;;5.50;68.80;102802.94;5058003;28;46064;-69
2022/01/22 00:16:17;;;;;;;;;19.25;19.25;;;;;5.55;68.72;102810.88;5056923;28;45485;-70
2022/01/22 00:18:43;;;;;;;;;20.00;18.75;;;;;5.54;68.93;102799.53;5058798;28;45626;-70
2022/01/22 00:21:08;;;;;;;;;14.50;13.00;;;;;5.55;68.89;102806.50;5056357;28;46219;-70
2022/01/22 00:23:37;;;;;;;;;14.25;13.75;;;;;5.55;69.48;102803.91;5055757;28;45373;-69
2022/01/22 00:26:02;;;;;;;;;20.25;17.50;;;;;5.52;68.89;102797.75;5055547;28;45598;-68
2022/01/22 00:28:28;;;;;;;;;17.00;13.50;;;;;5.55;69.33;102797.81;5055860;28;45533;-69
2022/01/22 00:30:53;;;;;;;;;19.25;17.25;;;;;5.58;69.02;102796.97;5055081;28;46196;-70
2022/01/22 00:33:18;;;;;;;;;17.75;15.25;;;;;5.56;68.84;102790.00;5055632;28;45296;-70
2022/01/22 00:35:44;;;;;;;;;16.25;13.75;;;;;5.56;69.01;102784.78;5056375;28;45215;-70
2022/01/22 00:38:10;;;;;;;;;18.25;14.25;;;;;5.55;69.44;102792.59;5057444;28;45218;-71
2022/01/22 00:40:35;;;;;;;;;17.25;16.00;;;;;5.55;69.51;102785.63;5060610;28;46054;-70
2022/01/22 00:43:00;;;;;;;;;14.50;12.50;;;;;5.58;69.49;102786.53;5060732;28;45401;-63
2022/01/22 00:45:26;;;;;;;;;14.25;14.25;;;;;5.57;68.72;102785.66;5056565;28;45426;-65
2022/01/22 00:47:51;;;;;;;;;11.75;11.00;;;;;5.59;69.22;102788.28;5054416;28;45617;-66
2022/01/22 00:50:23;;;;;;;;;16.50;13.00;;;;;5.59;69.18;102797.00;5055231;28;45377;-66
2022/01/22 00:52:49;;;;;;;;;14.50;12.00;;;;;5.59;68.80;102793.50;5057868;28;45490;-65
2022/01/22 00:55:15;;;;;;;;;14.75;14.50;;;;;5.62;69.83;102783.09;5058240;28;45509;-67
2022/01/22 00:57:41;;;;;;;;;14.00;12.00;;;;;5.65;70.04;102791.00;5058123;28;46120;-65
2022/01/22 01:00:10;;;;;;;;;13.00;11.50;;;;;5.66;69.51;102796.25;5058003;28;45957;-65
2022/01/22 01:02:36;;;;;;;;;11.50;10.50;;;;;5.68;69.36;102798.88;5058127;28;46353;-64
2022/01/22 01:05:05;;;;;;;;;9.50;8.25;;;;;5.66;68.96;102798.88;5059648;28;45371;-66
2022/01/22 01:07:31;;;;;;;;;12.00;10.00;;;;;5.63;68.89;102790.97;5060354;28;45549;-65
2022/01/22 01:09:56;;;;;;;;;9.25;9.25;;;;;5.55;69.26;102779.53;5058519;28;46090;-65
2022/01/22 01:12:22;;;;;;;;;11.50;11.00;;;;;5.58;69.31;102783.91;5057886;28;45892;-66
2022/01/22 01:15:05;;;;;;;;;8.00;8.00;;;;;5.63;69.29;102783.16;5058091;28;45524;-63
2022/01/22 01:32:12;;;;;;;;;8.75;7.00;;;;;5.70;69.67;102773.66;5057591;28;45243;-71
2022/01/22 01:34:19;;;;;;;;;11.50;9.00;;;;;5.67;69.29;102787.56;4997527;28;45467;-70
2022/01/22 01:36:45;;;;;;;;;18.25;14.00;;;;;5.70;69.61;102781.50;4995610;28;45519;-69
2022/01/22 01:39:16;;;;;;;;;9.50;6.75;;;;;5.69;69.45;102772.78;5021228;28;45484;-72
2022/01/22 01:41:52;;;;;;;;;13.00;12.75;;;;;5.68;70.29;102764.94;5057576;28;47168;-69
2022/01/22 01:44:18;;;;;;;;;14.50;13.25;;;;;5.75;70.28;102766.78;5050257;28;45395;-69
2022/01/22 01:46:46;;;;;;;;;16.25;13.75;;;;;5.76;69.10;102776.38;5057914;28;45481;-69
2022/01/22 01:49:12;;;;;;;;;16.00;14.50;;;;;5.75;69.97;102772.00;5058079;28;45527;-65
2022/01/22 01:51:38;;;;;;;;;17.25;13.75;;;;;5.74;70.04;102764.16;5063401;28;45854;-69
2022/01/22 01:59:22;;;;;;;;;19.00;15.50;;;;;5.83;70.13;102774.75;5056908;28;45492;-68
2022/01/22 02:01:47;;;;;;;;;17.25;16.00;;;;;5.85;69.68;102778.25;5055997;28;45720;-69
2022/01/22 02:04:14;;;;;;;;;17.00;15.25;;;;;5.85;69.15;102779.16;5056516;28;45398;-70
2022/01/22 02:06:40;;;;;;;;;19.25;13.25;;;;;5.85;70.23;102770.41;5057586;28;45384;-68
2022/01/22 02:09:08;;;;;;;;;16.25;11.25;;;;;5.86;69.32;102782.63;5057104;28;45406;-68
2022/01/22 02:11:36;;;;;;;;;14.75;13.00;;;;;5.84;69.35;102772.16;5057227;28;46864;-68
2022/01/22 02:24:52;;;;;;;;;14.50;12.00;;;;;5.93;70.14;102766.19;5056351;28;45492;-69
2022/01/22 02:27:19;;;;;;;;;15.75;14.50;;;;;5.94;69.13;102769.69;5056988;28;45387;-67
2022/01/22 02:29:45;;;;;;;;;13.75;13.00;;;;;5.93;69.09;102765.31;5057099;28;45427;-68
2022/01/22 02:34:59;;;;;;;;;15.50;13.75;;;;;5.95;68.67;102766.22;5056575;28;45534;-68
2022/01/22 02:37:31;;;;;;;;;14.00;13.00;;;;;5.97;69.30;102769.72;5060591;28;45340;-68
2022/01/22 02:40:06;;;;;;;;;15.00;12.75;;;;;5.98;68.45;102767.13;5056428;28;45391;-71
2022/01/22 02:42:34;;;;;;;;;12.75;9.50;;;;;5.97;68.72;102764.50;5056208;28;46088;-72
2022/01/22 02:45:00;;;;;;;;;16.00;13.50;;;;;5.92;69.29;102756.59;5056237;28;45177;-69
2022/01/22 02:47:25;;;;;;;;;14.25;13.50;;;;;5.89;69.18;102755.69;5056028;28;45403;-68
2022/01/22 02:49:51;;;;;;;;;17.75;14.00;;;;;5.85;68.81;102754.75;5057010;28;45555;-69
2022/01/22 02:52:20;;;;;;;;;14.50;14.50;;;;;5.83;69.30;102757.34;5056157;28;45562;-69
2022/01/22 02:54:46;;;;;;;;;17.50;11.75;;;;;5.82;69.58;102763.41;5056277;28;45478;-69
2022/01/22 02:57:13;;;;;;;;;13.00;11.00;;;;;5.79;68.77;102758.13;5056347;28;45328;-67
2022/01/22 02:59:40;;;;;;;;;15.25;13.50;;;;;5.76;69.21;102747.63;5057043;28;45612;-69
2022/01/22 03:02:08;;;;;;;;;13.00;11.00;;;;;5.69;69.25;102738.84;5057831;28;46104;-69
2022/01/22 03:04:33;;;;;;;;;16.75;13.25;;;;;5.72;69.28;102751.06;5060986;28;45426;-68
2022/01/22 03:06:59;;;;;;;;;14.25;12.50;;;;;5.76;69.45;102749.38;5063210;28;45338;-67
2022/01/22 03:09:30;;;;;;;;;15.75;13.00;;;;;5.76;69.49;102749.38;5034418;28;45399;-68
2022/01/22 03:12:20;;;;;;;;;14.00;12.25;;;;;5.78;69.47;102745.06;5058314;28;46174;-68
2022/01/22 03:20:33;;;;;;;;;6.00;5.25;;;;;5.82;69.94;102744.25;5057838;28;45568;-70
2022/01/22 03:28:00;;;;;;;;;14.25;11.00;;;;;5.79;69.36;102749.44;5057364;28;45353;-71
2022/01/22 03:30:26;;;;;;;;;14.75;13.00;;;;;5.78;69.48;102750.28;5056985;28;45813;-71
2022/01/22 03:32:54;;;;;;;;;12.75;10.25;;;;;5.80;69.98;102744.22;5055812;28;45289;-70
2022/01/22 03:37:52;;;;;;;;;16.00;13.00;;;;;5.83;69.93;102744.28;5056070;28;45374;-68
2022/01/22 03:40:23;;;;;;;;;11.50;9.25;;;;;5.84;69.73;102753.00;5055594;28;45464;-70
2022/01/22 03:42:50;;;;;;;;;10.50;9.00;;;;;5.86;69.98;102764.34;5055644;28;46201;-71
2022/01/22 03:45:17;;;;;;;;;17.50;13.00;;;;;5.84;69.47;102758.22;5056367;28;45390;-70
2022/01/22 03:47:43;;;;;;;;;14.75;12.75;;;;;5.85;70.11;102768.69;5055827;28;45481;-71
2022/01/22 03:50:10;;;;;;;;;14.25;11.50;;;;;5.83;69.36;102764.28;5056269;28;45525;-71
2022/01/22 03:52:35;;;;;;;;;15.00;14.50;;;;;5.85;69.55;102765.19;5055265;28;46517;-69
2022/01/22 03:55:02;;;;;;;;;16.50;13.50;;;;;5.84;69.72;102760.81;5055221;28;45305;-70
2022/01/22 03:57:27;;;;;;;;;14.25;13.75;;;;;5.83;70.34;102761.69;5055476;28;45592;-70
2022/01/22 03:59:55;;;;;;;;;15.00;13.50;;;;;5.85;70.11;102754.75;5054807;28;45241;-70
2022/01/22 04:04:51;;;;;;;;;16.75;15.25;;;;;5.83;70.39;102761.69;5055492;28;45243;-69
2022/01/22 04:09:59;;;;;;;;;12.50;10.00;;;;;5.82;70.25;102757.31;5057943;28;45373;-69
2022/01/22 04:12:42;;;;;;;;;15.75;13.50;;;;;5.79;70.27;102758.13;5056594;28;45430;-69
2022/01/22 04:15:10;;;;;;;;;17.25;14.50;;;;;5.79;70.58;102749.44;5055499;28;45328;-67
2022/01/22 04:28:38;;;;;;;;;14.50;14.25;;;;;5.77;70.42;102754.63;5014315;28;45331;-70
2022/01/22 04:31:03;;;;;;;;;13.75;13.50;;;;;5.75;70.54;102747.63;5061710;28;45248;-70
2022/01/22 04:33:29;;;;;;;;;21.75;15.25;;;;;5.73;71.15;102754.56;5059453;28;48451;-70
2022/01/22 04:35:54;;;;;;;;;16.00;15.50;;;;;5.75;71.04;102747.63;5059038;28;45295;-68
2022/01/22 04:38:19;;;;;;;;;22.00;15.00;;;;;5.73;70.75;102746.72;5058663;28;45439;-69
2022/01/22 04:40:45;;;;;;;;;16.25;14.00;;;;;5.75;71.21;102745.03;5058688;28;45398;-70
2022/01/22 04:43:11;;;;;;;;;17.75;16.25;;;;;5.74;70.68;102748.50;5058199;28;46188;-70
2022/01/22 04:55:44;;;;;;;;;24.25;20.75;;;;;5.66;70.74;102743.13;5060226;28;45683;-69
2022/01/22 04:58:10;;;;;;;;;26.00;23.75;;;;;5.67;70.65;102756.22;5063656;28;45474;-67
2022/01/22 05:00:45;;;;;;;;;10.25;8.50;;;;;5.65;71.24;102744.88;5058734;28;45481;-71
2022/01/22 05:03:10;;;;;;;;;24.25;20.75;;;;;5.66;70.64;102756.19;5057168;28;45684;-70
2022/01/22 05:05:36;;;;;;;;;26.50;24.75;;;;;5.66;71.54;102751.88;5057261;28;45634;-69
2022/01/22 05:08:01;;;;;;;;;28.75;25.50;;;;;5.68;71.11;102757.09;5058986;28;45222;-70
2022/01/22 05:10:27;;;;;;;;;29.50;28.25;;;;;5.69;70.75;102758.84;5059223;28;45593;-70
2022/01/22 05:12:53;;;;;;;;;27.50;25.50;;;;;5.70;71.12;102755.38;5058001;28;45419;-70
2022/01/22 05:15:19;;;;;;;;;26.50;25.00;;;;;5.71;70.65;102757.13;5057648;28;45315;-61
2022/01/22 05:17:46;;;;;;;;;32.50;25.25;;;;;5.70;70.43;102751.06;5058487;28;45359;-67
2022/01/22 05:20:30;;;;;;;;;29.25;27.25;;;;;5.73;70.99;102744.13;5059862;28;45584;-66
2022/01/22 05:25:36;;;;;;;;;26.50;23.25;;;;;5.79;70.66;102757.28;5059938;28;45313;-66
2022/01/22 05:28:30;;;;;;;;;34.25;27.50;;;;;5.78;70.37;102752.91;5063240;28;45446;-67
2022/01/22 05:30:55;;;;;;;;;26.75;23.00;;;;;5.79;70.82;102752.03;5058018;28;45596;-67
2022/01/22 05:38:43;;;;;;;;;29.75;25.00;;;;;5.76;70.75;102765.91;5057934;28;45239;-67
2022/01/22 05:41:08;;;;;;;;;32.00;24.50;;;;;5.77;70.76;102765.06;5055270;28;45511;-68
2022/01/22 05:43:33;;;;;;;;;28.00;23.75;;;;;5.69;70.20;102753.63;5058647;28;46064;-66
2022/01/22 05:45:59;;;;;;;;;30.75;23.75;;;;;5.75;70.03;102758.06;5057376;28;45549;-67
2022/01/22 05:48:24;;;;;;;;;30.50;23.75;;;;;5.75;69.97;102760.69;5057141;28;45345;-66
2022/01/22 05:50:57;;;;;;;;;30.00;24.00;;;;;5.73;70.44;102763.25;5057185;28;45331;-67
2022/01/22 06:01:11;;;;;;;;;30.50;26.25;;;;;5.69;70.30;102764.97;5045571;28;45447;-67
2022/01/22 06:03:37;;;;;;;;;32.50;28.00;;;;;5.73;71.31;102775.47;5056943;28;45570;-66
2022/01/22 06:06:03;;;;;;;;;28.50;27.75;;;;;5.68;70.18;102768.44;5058860;28;45319;-65
2022/01/22 06:08:34;;;;;;;;;31.25;25.25;;;;;5.78;70.61;102779.88;5058266;28;45315;-65
2022/01/22 06:11:07;;;;;;;;;28.50;26.75;;;;;5.77;70.89;102774.66;5057194;28;45340;-65
2022/01/22 06:13:46;;;;;;;;;37.25;27.00;;;;;5.79;70.29;102783.38;5057059;28;46894;-65
2022/01/22 06:16:14;;;;;;;;;33.00;25.50;;;;;5.79;71.08;102775.53;5055344;28;45433;-67
2022/01/22 06:18:40;;;;;;;;;34.25;30.00;;;;;5.80;70.49;102772.94;5056947;28;45262;-66
2022/01/22 06:21:08;;;;;;;;;37.00;28.75;;;;;5.84;71.19;102773.88;5038924;28;45523;-66
2022/01/22 06:23:35;;;;;;;;;29.00;28.00;;;;;5.88;70.53;102786.13;5060690;28;45283;-64
2022/01/22 06:26:00;;;;;;;;;31.75;25.25;;;;;5.91;70.90;102780.94;5056951;28;45273;-66
2022/01/22 06:28:30;;;;;;;;;31.00;29.25;;;;;5.92;70.69;102782.72;5057072;28;45459;-63
2022/01/22 06:30:57;;;;;;;;;35.25;26.25;;;;;5.93;70.59;102779.25;5061692;28;45527;-65
2022/01/22 06:33:23;;;;;;;;;33.50;29.75;;;;;5.92;70.86;102769.66;5057205;28;45951;-64
2022/01/22 06:35:48;;;;;;;;;33.50;28.00;;;;;5.89;70.86;102779.19;5056518;28;45481;-67
2022/01/22 06:38:15;;;;;;;;;32.75;28.25;;;;;5.87;70.83;102771.31;5055933;28;45356;-65
2022/01/22 06:43:06;;;;;;;;;33.00;27.75;;;;;5.93;70.17;102776.63;5056447;28;45886;-67
2022/01/22 06:45:31;;;;;;;;;37.75;30.50;;;;;5.91;70.47;102778.34;5040745;28;45412;-64
2022/01/22 06:47:57;;;;;;;;;29.50;25.25;;;;;5.89;70.20;102773.97;5055234;28;45498;-63
2022/01/22 06:50:23;;;;;;;;;33.25;27.50;;;;;5.87;71.30;102778.28;5055518;28;45605;-61
2022/01/22 06:52:56;;;;;;;;;33.75;29.25;;;;;5.91;70.92;102780.94;5055764;28;46282;-60
2022/01/22 06:55:42;;;;;;;;;27.00;25.25;;;;;5.93;71.34;102791.44;5056300;28;45430;-62
2022/01/22 06:58:08;;;;;;;;;32.00;30.75;;;;;5.97;70.90;102791.50;5056271;28;45436;-61
2022/01/22 07:00:33;;;;;;;;;32.25;28.50;;;;;5.99;70.62;102794.16;5055179;28;45612;-61
2022/01/22 07:02:59;;;;;;;;;34.75;26.50;;;;;5.95;69.85;102795.81;5056117;28;45930;-60
2022/01/22 07:05:24;;;;;;;;;28.00;27.00;;;;;5.93;69.97;102787.06;5055982;28;45346;-63
2022/01/22 07:07:50;;;;;;;;;34.75;29.75;;;;;5.98;71.08;102792.38;5056737;28;45363;-65
2022/01/22 07:10:15;;;;;;;;;28.00;27.75;;;;;5.99;71.04;102795.00;5056460;28;45530;-66
2022/01/22 07:12:41;;;;;;;;;41.00;31.25;;;;;6.04;70.86;102796.84;5056362;28;46278;-66
2022/01/22 07:15:07;;;;;;;;;32.00;26.75;;;;;6.03;70.35;102795.09;5026546;28;45478;-67
2022/01/22 07:17:36;;;;;;;;;32.25;28.25;;;;;6.02;70.35;102793.31;5041439;28;45262;-66
2022/01/22 07:20:04;;;;;;;;;36.25;31.00;;;;;6.02;70.68;102788.09;5056842;28;45632;-66
2022/01/22 07:25:04;;;;;;;;;35.75;32.25;;;;;6.07;71.26;102794.28;5056064;28;45481;-65
2022/01/22 07:27:29;;;;;;;;;35.75;29.00;;;;;6.14;71.43;102793.50;5055498;28;45494;-67
2022/01/22 07:29:55;;;;;;;;;37.75;29.75;;;;;6.16;70.42;102790.91;5054926;28;45505;-64
2022/01/22 07:32:35;;;;;;;;;29.50;26.00;;;;;6.12;71.09;102795.22;5055752;28;49799;-65
2022/01/22 07:35:01;;;;;;;;;33.75;31.25;;;;;6.16;69.98;102802.25;5056843;28;45480;-63
2022/01/22 07:37:26;;;;;;;;;38.75;32.75;;;;;6.12;70.79;102797.81;5055525;28;45538;-61
2022/01/22 07:39:51;;;;;;;;;32.00;28.00;;;;;6.12;70.25;102806.56;5055620;28;45568;-62
2022/01/22 07:42:17;;;;;;;;;29.75;28.00;;;;;6.12;70.67;102806.56;5056564;28;46257;-65
2022/01/22 07:44:42;;;;;;;;;33.00;31.50;;;;;6.11;70.37;102798.69;5055973;28;45368;-63
2022/01/22 07:47:08;;;;;;;;;35.50;31.75;;;;;6.18;70.82;102802.28;5055878;28;45406;-66
2022/01/22 07:49:34;;;;;;;;;32.00;29.00;;;;;6.18;70.47;102808.38;5056209;28;45543;-66
2022/01/22 07:51:59;;;;;;;;;36.25;31.75;;;;;6.23;70.88;102816.28;5038382;28;46042;-68
2022/01/22 07:54:25;;;;;;;;;36.50;28.75;;;;;6.25;70.65;102811.97;5058210;28;45437;-67
2022/01/22 07:56:50;;;;;;;;;28.00;25.25;;;;;6.26;70.12;102811.97;5059578;28;46141;-68
2022/01/22 07:59:15;;;;;;;;;40.00;33.75;;;;;6.24;70.29;102804.97;5060139;28;45381;-66
2022/01/22 08:01:41;;;;;;;;;34.25;31.00;;;;;6.18;70.21;102795.28;5060725;28;46174;-66
2022/01/22 08:04:06;;;;;;;;;42.50;32.50;;;;;6.26;70.94;102809.34;5061472;28;45307;-67
2022/01/22 08:06:32;;;;;;;;;34.00;29.25;;;;;6.22;70.81;102814.53;5059274;28;45373;-67
2022/01/22 08:08:57;;;;;;;;;33.25;29.25;;;;;6.29;70.59;102819.84;5059318;28;45546;-67
2022/01/22 08:11:23;;;;;;;;;37.00;31.00;;;;;6.36;70.94;102822.53;5058750;28;46520;-63
2022/01/22 08:13:48;;;;;;;;;30.25;27.50;;;;;6.38;70.72;102824.34;5059973;28;45309;-68
2022/01/22 08:16:13;;;;;;;;;42.00;30.75;;;;;6.38;70.57;102824.34;5058260;28;45368;-67
2022/01/22 08:18:39;;;;;;;;;31.00;28.50;;;;;6.37;69.57;102830.41;5058754;28;45574;-68
2022/01/22 08:21:04;;;;;;;;;34.50;29.25;;;;;6.34;70.46;102827.75;5058494;28;45236;-68
2022/01/22 08:23:32;;;;;;;;;36.25;31.50;;;;;6.35;70.40;102826.00;5058552;28;45244;-68
2022/01/22 08:25:57;;;;;;;;;33.50;30.50;;;;;6.34;70.90;102826.88;5059039;28;45429;-66
2022/01/22 08:36:27;;;;;;;;;43.00;33.75;;;;;6.38;70.92;102833.94;5058600;28;45376;-68
2022/01/22 08:38:52;;;;;;;;;37.25;29.75;;;;;6.46;70.44;102841.84;5059008;28;45423;-69
2022/01/22 08:41:18;;;;;;;;;35.25;29.75;;;;;6.41;69.47;102839.19;5058160;28;46091;-68
2022/01/22 08:43:43;;;;;;;;;33.25;30.00;;;;;6.42;69.91;102840.94;5058879;28;45465;-70
2022/01/22 08:46:08;;;;;;;;;34.25;26.25;;;;;6.45;69.72;102846.22;5057397;28;45598;-69
2022/01/22 08:48:34;;;;;;;;;33.00;29.25;;;;;6.47;69.71;102847.13;5059339;28;45342;-70
2022/01/22 08:51:00;;;;;;;;;47.50;38.00;;;;;6.50;71.20;102852.38;5044513;28;48035;-68
2022/01/22 08:53:26;;;;;;;;;31.00;29.00;;;;;6.55;69.98;102853.34;5058670;28;45362;-65
2022/01/22 08:55:51;;;;;;;;;34.25;31.50;;;;;6.60;70.12;102844.66;5058605;28;45263;-67
2022/01/22 08:58:17;;;;;;;;;31.25;29.00;;;;;6.69;70.85;102848.25;5058507;28;45567;-65
2022/01/22 09:00:43;;;;;;;;;34.25;28.25;;;;;6.71;69.18;102853.53;5057707;28;45341;-68
2022/01/22 09:03:10;;;;;;;;;37.00;31.25;;;;;6.69;69.88;102865.69;5058390;28;45348;-68
2022/01/22 09:05:35;;;;;;;;;33.50;31.75;;;;;6.67;69.19;102867.41;5057078;28;45427;-69
2022/01/22 09:08:03;;;;;;;;;43.25;27.50;;;;;6.48;69.97;102843.66;5058237;28;45558;-66
2022/01/22 09:10:28;;;;;;;;;35.50;27.75;;;;;6.62;69.17;102869.09;5040023;28;46025;-67
2022/01/22 09:12:53;;;;;;;;;41.75;34.00;;;;;6.60;69.47;102868.19;5058393;28;45420;-68
2022/01/22 09:15:19;;;;;;;;;38.75;31.25;;;;;6.64;70.04;102870.00;5057800;28;45413;-66
2022/01/22 09:17:47;;;;;;;;;34.50;32.00;;;;;6.70;71.02;102872.69;5058462;28;45283;-68
2022/01/22 09:20:19;;;;;;;;;38.25;30.25;;;;;6.77;69.73;102857.94;5058493;28;46040;-66
2022/01/22 09:22:45;;;;;;;;;38.75;32.75;;;;;6.77;68.99;102865.78;5058324;28;45279;-71
2022/01/22 09:25:15;;;;;;;;;40.75;33.50;;;;;6.76;69.08;102874.50;5057691;28;45265;-66
2022/01/22 09:27:40;;;;;;;;;41.50;31.50;;;;;6.69;68.96;102857.84;5057208;28;45269;-67
2022/01/22 09:30:06;;;;;;;;;31.50;27.25;;;;;6.76;69.66;102867.53;5057707;28;46095;-67
2022/01/22 09:32:31;;;;;;;;;43.00;35.25;;;;;6.79;68.43;102879.75;5057938;28;45473;-66
2022/01/22 09:34:57;;;;;;;;;34.25;30.00;;;;;6.79;68.83;102883.28;5058671;28;45870;-65
2022/01/22 09:37:22;;;;;;;;;34.25;32.00;;;;;6.82;68.49;102893.78;5060013;28;45380;-69
2022/01/22 09:39:48;;;;;;;;;43.75;32.75;;;;;6.83;68.18;102889.41;5057316;28;46149;-66
2022/01/22 09:42:14;;;;;;;;;37.25;30.00;;;;;6.85;68.71;102899.03;5058054;28;45331;-68
2022/01/22 09:44:42;;;;;;;;;32.75;30.50;;;;;6.85;67.57;102892.91;5057819;28;45322;-67
2022/01/22 09:47:10;;;;;;;;;49.00;37.75;;;;;6.82;68.42;102887.66;5057218;28;45533;-67
2022/01/22 09:49:35;;;;;;;;;35.25;30.00;;;;;6.83;67.72;102895.53;5056728;28;45382;-66
2022/01/22 09:52:01;;;;;;;;;38.50;31.25;;;;;6.74;67.69;102879.72;5058922;28;47159;-66
2022/01/22 09:54:26;;;;;;;;;46.50;36.50;;;;;6.82;67.62;102893.78;5059803;28;45426;-66
2022/01/22 09:56:52;;;;;;;;;36.25;32.50;;;;;6.88;68.17;102892.97;5059777;28;45362;-66
2022/01/22 09:59:17;;;;;;;;;34.25;32.00;;;;;6.91;66.86;102889.50;5057254;28;46162;-69
2022/01/22 10:01:43;;;;;;;;;38.75;34.00;;;;;6.91;67.93;102893.03;5057609;28;45480;-68
2022/01/22 10:04:09;;;;;;;;;36.75;29.75;;;;;6.90;66.66;102893.00;5057837;28;45305;-63
2022/01/22 10:06:52;;;;;;;;;43.50;36.25;;;;;6.90;67.67;102888.66;5059763;28;45621;-62
2022/01/22 10:09:33;;;;;;;;;44.25;35.25;;;;;7.00;67.82;102898.38;5057975;28;46582;-64
2022/01/22 10:12:11;;;;;;;;;43.25;34.25;;;;;7.05;67.09;102894.94;5057209;28;45756;-63
2022/01/22 10:15:05;;;;;;;;;41.75;32.75;;;;;7.01;66.82;102896.63;5058053;28;45424;-68
2022/01/22 10:17:55;;;;;;;;;34.50;27.00;;;;;7.06;66.25;102897.53;5060066;28;45651;-68
2022/01/22 10:20:20;;;;;;;;;39.25;30.00;;;;;7.12;66.50;102902.84;5059433;28;46388;-65
2022/01/22 10:22:46;;;;;;;;;42.50;33.00;;;;;7.17;66.21;102897.69;5059228;28;45303;-64
2022/01/22 10:25:30;;;;;;;;;31.00;30.00;;;;;7.27;66.46;102898.66;5057658;28;45371;-65
2022/01/22 10:27:58;;;;;;;;;40.25;33.00;;;;;7.36;66.57;102895.25;5058111;28;45334;-68
2022/01/22 10:30:33;;;;;;;;;41.00;32.75;;;;;7.34;65.71;102910.06;5057452;28;47337;-62
2022/01/22 10:33:07;;;;;;;;;41.25;33.00;;;;;7.31;65.71;102918.75;5060154;28;45240;-63
2022/01/22 10:35:33;;;;;;;;;34.00;27.25;;;;;7.23;65.88;102900.38;5060035;28;45224;-62
2022/01/22 10:38:01;;;;;;;;;37.25;31.75;;;;;7.30;65.55;102917.00;5058487;28;45263;-65
2022/01/22 10:40:29;;;;;;;;;33.25;27.50;;;;;7.30;65.37;102911.78;5057936;28;45687;-63
2022/01/22 10:43:25;;;;;;;;;31.75;29.50;;;;;7.28;65.81;102910.88;5041163;28;45424;-64
2022/01/22 10:46:01;;;;;;;;;38.50;28.25;;;;;7.31;65.48;102910.91;5077466;28;45410;-68
2022/01/22 10:48:27;;;;;;;;;38.50;32.25;;;;;7.30;65.26;102896.06;5077575;27;45293;-69
2022/01/22 10:51:06;;;;;;;;;43.25;35.75;;;;;7.37;65.74;102908.34;5077337;27;46724;-68
2022/01/22 10:53:43;;;;;;;;;33.25;30.50;;;;;7.47;65.38;102900.63;5076900;27;45357;-64
2022/01/22 10:56:13;;;;;;;;;35.50;31.25;;;;;7.49;65.20;102897.13;5076638;27;45364;-65
2022/01/22 10:58:52;;;;;;;;;32.50;29.25;;;;;7.52;65.25;102896.31;5057438;28;45411;-67
2022/01/22 11:01:17;;;;;;;;;36.00;32.50;;;;;7.56;64.87;102895.47;5057210;28;46309;-68
2022/01/22 11:03:43;;;;;;;;;47.50;37.50;;;;;7.57;64.45;102890.22;5027819;28;45490;-64
2022/01/22 11:06:24;;;;;;;;;38.50;32.25;;;;;7.60;64.92;102886.78;5036383;28;45343;-65
2022/01/22 11:08:49;;;;;;;;;36.25;32.25;;;;;7.67;65.22;102887.69;5037751;28;45301;-69
2022/01/22 11:11:14;;;;;;;;;33.25;32.00;;;;;7.73;63.87;102893.88;5067808;28;45472;-68
2022/01/22 11:13:40;;;;;;;;;27.75;25.75;;;;;7.76;64.17;102890.41;5057352;28;45230;-67
2022/01/22 11:16:06;;;;;;;;;36.50;32.00;;;;;7.78;64.20;102895.66;5057011;28;45220;-69
2022/01/22 11:18:32;;;;;;;;;31.25;26.75;;;;;7.81;63.85;102888.69;5057079;28;45575;-69
2022/01/22 11:20:58;;;;;;;;;34.25;29.75;;;;;7.79;63.76;102885.19;5053185;28;45434;-67
2022/01/22 11:23:24;;;;;;;;;27.00;25.50;;;;;7.78;63.41;102886.06;5044977;28;45427;-75
2022/01/22 11:25:51;;;;;;;;;31.75;27.50;;;;;7.76;63.84;102885.16;5057863;28;45420;-67
2022/01/22 11:28:19;;;;;;;;;28.25;27.25;;;;;7.73;63.60;102887.75;5040898;28;45546;-68
2022/01/22 11:30:48;;;;;;;;;40.25;31.50;;;;;7.74;63.73;102887.78;5036405;28;47190;-66
2022/01/22 11:33:17;;;;;;;;;33.50;30.00;;;;;7.73;62.84;102874.66;5039500;28;45300;-72
2022/01/22 11:35:51;;;;;;;;;45.50;36.25;;;;;7.71;64.30;102881.63;5039331;28;45505;-70
2022/01/22 11:38:26;;;;;;;;;32.50;28.50;;;;;7.75;63.24;102881.69;5039031;28;45439;-67
2022/01/22 11:41:14;;;;;;;;;31.75;29.00;;;;;7.75;63.68;102873.81;5057545;28;46086;-69
2022/01/22 11:44:17;;;;;;;;;35.75;28.75;;;;;7.86;64.58;102870.41;5061940;28;45233;-68
2022/01/22 11:46:59;;;;;;;;;32.50;28.00;;;;;7.94;62.99;102873.97;5038089;28;45492;-69
2022/01/22 11:49:31;;;;;;;;;45.00;33.00;;;;;7.89;62.95;102860.81;5039511;28;45476;-66
2022/01/22 11:52:12;;;;;;;;;35.50;30.50;;;;;7.93;63.03;102856.50;5056096;28;46520;-69
2022/01/22 11:54:59;;;;;;;;;35.75;29.25;;;;;7.90;63.08;102861.69;5040603;28;45462;-68
2022/01/22 11:57:29;;;;;;;;;36.75;29.75;;;;;7.90;63.60;102866.94;5059352;28;45383;-69
2022/01/22 12:00:26;;;;;;;;;36.00;31.25;;;;;7.90;64.01;102869.56;5058010;28;45662;-66
2022/01/22 12:03:07;;;;;;;;;44.75;39.25;;;;;7.99;63.28;102866.16;5058093;28;47109;-70
2022/01/22 12:05:34;;;;;;;;;34.00;31.50;;;;;7.86;62.73;102836.34;5058047;28;45355;-67
2022/01/22 12:08:01;;;;;;;;;34.75;31.75;;;;;8.08;63.87;102858.34;5055623;28;45363;-65
2022/01/22 12:10:38;;;;;;;;;45.75;35.00;;;;;8.21;63.89;102848.81;5038062;28;45559;-67
2022/01/22 12:16:11;;;;;;;;;45.75;37.25;;;;;8.39;62.96;102842.81;5055447;28;45256;-69
2022/01/22 12:18:43;;;;;;;;;40.00;33.75;;;;;8.41;62.34;102848.03;5056858;28;45568;-65
2022/01/22 12:23:55;;;;;;;;;64.00;48.75;;;;;8.57;62.73;102852.56;5056197;28;46052;-70
2022/01/22 12:26:37;;;;;;;;;30.00;26.75;;;;;8.62;61.89;102836.81;5055655;28;45429;-69
2022/01/22 12:29:29;;;;;;;;;37.50;32.25;;;;;8.57;62.06;102834.19;5038016;28;45363;-68
2022/01/22 12:32:14;;;;;;;;;30.25;27.00;;;;;8.64;61.80;102837.69;5055522;28;45285;-70
2022/01/22 12:35:05;;;;;;;;;35.00;32.25;;;;;8.67;61.45;102834.22;5055195;28;46352;-67
2022/01/22 12:37:31;;;;;;;;;35.75;28.75;;;;;8.60;61.68;102828.97;5056923;28;45276;-71
2022/01/22 12:39:58;;;;;;;;;35.25;30.00;;;;;8.58;61.08;102828.06;5056762;28;45447;-70
2022/01/22 12:42:55;;;;;;;;;37.75;31.75;;;;;8.54;61.33;102825.41;5057001;28;45334;-66
2022/01/22 12:45:24;;;;;;;;;35.00;31.75;;;;;8.51;61.94;102818.44;5040240;28;46184;-70
2022/01/22 12:47:50;;;;;;;;;36.75;31.00;;;;;8.51;61.56;102823.66;5058395;28;45246;-67
2022/01/22 12:50:23;;;;;;;;;38.00;30.75;;;;;8.47;61.74;102817.50;5059261;28;45364;-74
2022/01/22 12:52:51;;;;;;;;;36.75;32.00;;;;;8.38;62.39;102801.72;5059818;28;45241;-69
2022/01/22 12:55:20;;;;;;;;;45.25;36.75;;;;;8.52;61.90;102812.31;5059586;28;46555;-68
2022/01/22 12:57:46;;;;;;;;;38.00;33.50;;;;;8.58;61.80;102817.59;5061056;28;45331;-71
2022/01/22 13:00:15;;;;;;;;;39.50;32.00;;;;;8.64;62.31;102816.72;5063002;28;45233;-69
2022/01/22 13:02:53;;;;;;;;;44.75;36.75;;;;;8.66;61.65;102814.97;5062308;28;45391;-68
2022/01/22 13:05:20;;;;;;;;;46.25;36.00;;;;;8.68;61.97;102810.59;5060404;28;46937;-70
2022/01/22 13:07:59;;;;;;;;;37.25;32.25;;;;;8.74;61.52;102799.28;5058743;28;45300;-68
2022/01/22 13:10:32;;;;;;;;;40.25;32.25;;;;;8.83;61.56;102808.91;5058651;28;45256;-68
2022/01/22 13:12:59;;;;;;;;;35.00;28.50;;;;;8.85;61.17;102804.53;5057500;28;45499;-70
2022/01/22 13:15:27;;;;;;;;;35.50;32.00;;;;;8.88;61.40;102794.94;5058255;28;45398;-68